Airfield :
LOGIN :

Register | Disclaimer

   EN    FR    IT 

 










Legend :    VFR   Marginal VFR   IFR   Intensive IFR   Very Intensive IFR
Visi :
Ceiling :
>= 8 km
>= 3000ft
5 to 8 km
1000 to 3000 ft
1500m to 5 km
500 to 1000 ft
800 to 1500m
200 to 500 ft
< 800m
< 200 ft
Symbols :   Thunderstorms  Fog  Heavy snow  Heavy precipitations  Wind > 20 kt
SIGMETs :     Misc.  Thunderstorms  Icing  Turbulence  Mountain Waves  Volcanic Ashes






- Airport Elevation : 17 ft
- IATA code : CPH


EKCH - København - Kastrup (Copenhagen)

CURRENT METAR :
  • 180320Z 11005KT 4500 RA BKN018 12/12 Q1009 TEMPO 2000M -RA BKN004

EXPIRED METARs :
  • 180250Z 13008KT 1800 -DZRA BKN002 BKN019 12/12 Q1010 TEMPO 3000 SCT002
  • 180220Z 12006KT 1200 R22L/P1500N R04L/P1500N R12/P1500U BCFG BKN001 12/12 Q1010 TEMPO 3000 BR SCT001
  • 180150Z 12006KT 0200 R22L/0900N R04L/P1500N R12/0550U BCFG SCT002 SCT046 12/12 Q1010 TEMPO 2000 BR
  • 180120Z 11002KT 1200 R22L/P1500N R04L/P1500D R12/P1500N BCFG BKN048 11/11 Q1010 BECMG 4000 BR
  • 180050Z 09002KT 0800 R22L/1300D R04L/0900N R12/P1500N BCFG FEW003 BKN048 10/10 Q1010 TEMPO 0200 FG VV002
  • 180020Z 16002KT 0300 R22L/0900U R04L/0800D R12/0700N BCFG FEW003 SCT048 10/10 Q1011 TEMPO 0200 FG VV002

TAF AMD TAF EKCH
Valid from the 18 at 00:00 until the 19 at 00:00 UTC


180027Z 1800/1824 23008KT 8000 FEW008
TEMPO 1800/1804 VRB02KT 0200 BCFG VV002
BECMG 1804/1806 15010KT 2000 -RADZ BR BKN004
TEMPO 1806/1810 6000 RA BKN010
BECMG 1810/1812 FEW008 SCT015
TEMPO 1818/1821 21020G30KT 4000 SHRA BKN010 BKN020CB



MET'MAP, your aeronautical weather chart ! - Copyright ORBIFLY December 2007 - Disclaimer

ORBIFLY MET'MAP TEAM :

Programming & Development : Alexandra Zaïnal
Concept & Development : Baudouin d'Aumeries
Co-Development & Prog : Marc-Olivier Méhu
Technical & hardware support : Manuel Goepfert

Contact : metmap@orbifly.com




SOURCES & CREDITS :

   NOAA